Ashland, Wisconsin
Current Conditions -  °F | °C
As of 2:53 AM on Sunday 21 Dec 2014 (Local Time) from KASX Reporting Station
Overcast Overcast  
Wind Chill: 22°   Ceiling: 1600
Heat Index: 31°   Visibility: 10mi
Dew Point: 26°   Wind: 10mph
Humidity: 82%   Direction: 200°SSW
Pressure: 30.06"   Gusts: NA
Location:  46.59°N, 90.89°W
Report Text: KASX 210853Z AUTO 20009KT 10SM OVC016 M01/M03 A3006 RMK AO2 SLP191 T10061033 56011
Loading
Personal Weather Stations






























Interactive Weather Map New forecast layout! Learn more

10-Day Weather Forecast

Advertisements
Track Severe Weather on mobile